Time;durP1;ratioP1;P1;durP2;ratioP2;P2;SDS_P1;SDS_P2;PMS_P1;PMS_P2;Temp;Humidity;BMP_temperature;BMP_pressure;BME280_temperature;BME280_humidity;BME280_pressure;Samples;Min_cycle;Max_cycle;Signal;HPM_P1;HPM_P2
2022/09/12 00:01:57;;;;;;;21.03;16.87;;;14.20;99.90;;;;;;5050307;28;20442;-51
2022/09/12 00:04:24;;;;;;;22.97;18.20;;;14.20;99.90;;;;;;5050550;28;20424;-48
2022/09/12 00:06:49;;;;;;;21.63;18.00;;;14.20;99.90;;;;;;5049753;28;20181;-47
2022/09/12 00:09:15;;;;;;;21.70;16.90;;;14.10;99.90;;;;;;5050012;28;20496;-51
2022/09/12 00:11:44;;;;;;;20.23;16.30;;;14.20;99.90;;;;;;5048750;28;20254;-49
2022/09/12 00:14:13;;;;;;;22.60;17.60;;;14.10;99.90;;;;;;5049077;28;20624;-49
2022/09/12 00:16:39;;;;;;;21.30;17.77;;;14.10;99.90;;;;;;5049697;28;20416;-51
2022/09/12 00:19:06;;;;;;;18.67;16.57;;;14.10;99.90;;;;;;5051530;28;20428;-50
2022/09/12 00:21:33;;;;;;;18.63;16.10;;;14.10;99.90;;;;;;5052382;28;20460;-50
2022/09/12 00:23:59;;;;;;;20.40;15.70;;;14.10;99.90;;;;;;5050228;28;20458;-49
2022/09/12 00:26:25;;;;;;;19.87;16.00;;;14.10;99.90;;;;;;5049968;28;20420;-52
2022/09/12 00:28:51;;;;;;;19.60;15.67;;;14.10;99.90;;;;;;5049311;28;20197;-50
2022/09/12 00:31:22;;;;;;;19.80;16.40;;;14.10;99.90;;;;;;5050007;28;20181;-48
2022/09/12 00:33:48;;;;;;;22.77;16.93;;;14.00;99.90;;;;;;5050083;28;20953;-51
2022/09/12 00:36:20;;;;;;;19.30;16.20;;;14.00;99.90;;;;;;5050035;28;20425;-48
2022/09/12 00:38:48;;;;;;;20.00;16.20;;;14.00;99.90;;;;;;5049349;28;20511;-49
2022/09/12 00:41:31;;;;;;;20.00;17.07;;;14.00;99.90;;;;;;5049667;28;20459;-51
2022/09/12 00:44:21;;;;;;;18.30;14.70;;;14.00;99.90;;;;;;5049796;28;20444;-47
2022/09/12 00:47:02;;;;;;;19.67;15.97;;;14.00;99.90;;;;;;5048236;28;20508;-49
2022/09/12 00:49:32;;;;;;;20.37;15.80;;;13.90;99.90;;;;;;5049670;28;20412;-52
2022/09/12 00:52:07;;;;;;;18.00;15.00;;;13.90;99.90;;;;;;5050100;28;20415;-49
2022/09/12 00:54:41;;;;;;;19.37;15.83;;;13.90;99.90;;;;;;5049831;28;20416;-47
2022/09/12 00:57:09;;;;;;;20.70;15.47;;;13.90;99.90;;;;;;5049246;28;20420;-51
2022/09/12 00:59:41;;;;;;;20.00;16.20;;;13.90;99.90;;;;;;5049701;28;20442;-51
2022/09/12 01:02:08;;;;;;;18.37;14.70;;;13.90;99.90;;;;;;5049484;28;20503;-51
2022/09/12 01:04:36;;;;;;;19.93;15.57;;;13.80;99.90;;;;;;5049660;28;20482;-49
2022/09/12 01:07:04;;;;;;;20.13;15.70;;;13.70;99.90;;;;;;5049054;28;20439;-47
2022/09/12 01:09:30;;;;;;;22.20;17.17;;;13.70;99.90;;;;;;5048668;28;20412;-50
2022/09/12 01:11:56;;;;;;;25.13;17.93;;;13.80;99.90;;;;;;5048731;28;20984;-52
2022/09/12 01:14:22;;;;;;;18.97;15.07;;;13.70;99.90;;;;;;5048223;28;20425;-51
2022/09/12 01:16:49;;;;;;;17.80;14.63;;;13.80;99.90;;;;;;5048803;28;20511;-51
2022/09/12 01:19:31;;;;;;;20.33;15.40;;;13.80;99.90;;;;;;5052190;28;20419;-50
2022/09/12 01:22:30;;;;;;;20.33;15.50;;;13.70;99.90;;;;;;5036344;28;20475;-51
2022/09/12 01:25:43;;;;;;;18.70;14.73;;;13.60;99.90;;;;;;5049245;28;20767;-54
2022/09/12 01:28:20;;;;;;;18.93;14.23;;;13.50;99.90;;;;;;5042618;28;20412;-48
2022/09/12 01:31:37;;;;;;;17.77;13.83;;;13.50;99.90;;;;;;5049479;28;20416;-48
2022/09/12 01:34:09;;;;;;;18.90;14.40;;;13.50;99.90;;;;;;5041736;28;20935;-53
2022/09/12 01:36:54;;;;;;;20.73;14.80;;;13.50;99.90;;;;;;5029096;28;20413;-49
2022/09/12 01:39:55;;;;;;;15.40;13.23;;;13.40;99.90;;;;;;5045614;28;20764;-52
2022/09/12 01:42:35;;;;;;;15.43;13.43;;;13.40;99.90;;;;;;5035870;28;20437;-47
2022/09/12 01:45:04;;;;;;;15.63;12.80;;;13.40;99.90;;;;;;5049268;28;20507;-49
2022/09/12 01:47:39;;;;;;;16.70;12.63;;;13.50;99.90;;;;;;5047680;28;20428;-52
2022/09/12 01:50:17;;;;;;;15.13;12.77;;;13.50;99.90;;;;;;5048887;28;20420;-48
2022/09/12 01:52:48;;;;;;;18.77;13.70;;;13.50;99.90;;;;;;5049240;28;20422;-52
2022/09/12 01:55:22;;;;;;;14.70;11.47;;;13.50;99.90;;;;;;5052528;28;20434;-54
2022/09/12 01:58:03;;;;;;;16.30;13.33;;;13.50;99.90;;;;;;5052252;28;20523;-48
2022/09/12 02:00:33;;;;;;;13.10;11.63;;;13.50;99.90;;;;;;5052566;28;21024;-50
2022/09/12 02:03:02;;;;;;;13.60;11.50;;;13.40;99.90;;;;;;5052974;28;20783;-50
2022/09/12 02:05:43;;;;;;;15.53;12.13;;;13.50;99.90;;;;;;5052595;28;20474;-47
2022/09/12 02:08:47;;;;;;;15.83;12.47;;;13.50;99.90;;;;;;5051956;28;20424;-53
2022/09/12 02:11:13;;;;;;;13.60;11.47;;;13.60;99.90;;;;;;5041972;28;20519;-51
2022/09/12 02:13:43;;;;;;;17.30;11.27;;;13.60;99.90;;;;;;5051820;28;20532;-50
2022/09/12 02:16:14;;;;;;;15.17;11.70;;;13.70;99.90;;;;;;5052586;28;20866;-50
2022/09/12 02:18:45;;;;;;;13.10;11.40;;;13.70;99.90;;;;;;5052106;28;20454;-53
2022/09/12 02:21:11;;;;;;;13.80;11.80;;;13.90;99.90;;;;;;5056321;28;20463;-54
2022/09/12 02:23:42;;;;;;;13.33;10.97;;;13.80;99.90;;;;;;5052463;28;20433;-49
2022/09/12 02:26:19;;;;;;;14.90;12.00;;;13.90;99.90;;;;;;5052490;28;20414;-49
2022/09/12 02:28:45;;;;;;;13.70;11.30;;;13.90;99.90;;;;;;5050455;28;20770;-51
2022/09/12 02:31:32;;;;;;;14.40;11.40;;;13.90;99.90;;;;;;5052316;28;20435;-50
2022/09/12 02:34:09;;;;;;;13.23;11.33;;;13.90;99.90;;;;;;5051953;28;20432;-52
2022/09/12 02:36:59;;;;;;;17.67;12.30;;;13.90;99.90;;;;;;5051648;28;20420;-50
2022/09/12 02:39:25;;;;;;;14.07;10.60;;;13.90;99.90;;;;;;5052137;28;20495;-49
2022/09/12 02:41:52;;;;;;;13.30;10.87;;;14.00;99.90;;;;;;5052106;28;20424;-51
2022/09/12 02:44:19;;;;;;;13.87;9.83;;;14.00;99.90;;;;;;5051758;28;20428;-48
2022/09/12 02:46:52;;;;;;;10.50;9.40;;;14.00;99.90;;;;;;5050440;28;20419;-51
2022/09/12 02:49:18;;;;;;;13.77;10.23;;;14.10;99.90;;;;;;5051945;28;20482;-50
2022/09/12 02:51:45;;;;;;;11.00;9.50;;;14.20;99.90;;;;;;5051996;28;20889;-50
2022/09/12 02:54:12;;;;;;;12.40;9.53;;;14.20;99.90;;;;;;5051728;28;20942;-51
2022/09/12 02:56:41;;;;;;;13.90;11.77;;;14.30;99.90;;;;;;5051150;28;20905;-48
2022/09/12 02:59:10;;;;;;;11.70;10.00;;;14.20;99.90;;;;;;5051593;28;20424;-50
2022/09/12 03:02:09;;;;;;;10.60;9.53;;;14.10;99.90;;;;;;5051529;28;20483;-49
2022/09/12 03:05:13;;;;;;;11.90;9.97;;;14.10;99.90;;;;;;5050951;28;20822;-48
2022/09/12 03:08:08;;;;;;;11.70;9.67;;;14.10;99.90;;;;;;5051065;28;20412;-53
2022/09/12 03:11:15;;;;;;;13.67;10.73;;;14.20;99.90;;;;;;5038736;28;20834;-52
2022/09/12 03:14:08;;;;;;;13.13;9.60;;;14.20;99.90;;;;;;5040798;28;20439;-49
2022/09/12 03:17:02;;;;;;;12.23;10.03;;;14.20;99.90;;;;;;5050913;28;20423;-52
2022/09/12 03:20:08;;;;;;;11.67;9.23;;;14.10;99.90;;;;;;5055381;28;20423;-49
2022/09/12 03:22:49;;;;;;;9.60;8.37;;;14.10;99.90;;;;;;5068309;28;20490;-53
2022/09/12 03:25:39;;;;;;;11.37;9.27;;;14.00;99.90;;;;;;5042680;28;20424;-49
2022/09/12 03:28:12;;;;;;;11.30;10.10;;;14.00;99.90;;;;;;5050368;28;20929;-48
2022/09/12 03:30:40;;;;;;;11.73;9.43;;;14.00;99.90;;;;;;5051093;28;20424;-50
2022/09/12 03:33:09;;;;;;;12.60;10.10;;;14.00;99.90;;;;;;5051216;28;20463;-52
2022/09/12 03:35:35;;;;;;;11.10;9.80;;;14.10;99.90;;;;;;5050980;28;20779;-50
2022/09/12 03:38:00;;;;;;;11.70;10.20;;;14.00;99.90;;;;;;5050371;28;20421;-48
2022/09/12 03:40:26;;;;;;;10.73;9.33;;;14.00;99.90;;;;;;5050574;28;20213;-52
2022/09/12 03:42:52;;;;;;;10.80;9.70;;;14.00;99.90;;;;;;5050858;28;20185;-51
2022/09/12 03:45:18;;;;;;;12.63;10.10;;;14.00;99.90;;;;;;5050930;28;20198;-47
2022/09/12 03:47:44;;;;;;;12.07;10.17;;;14.00;99.90;;;;;;5049179;28;20507;-47
2022/09/12 03:50:09;;;;;;;12.20;10.73;;;14.10;99.90;;;;;;5050724;28;20280;-51
2022/09/12 03:52:35;;;;;;;11.03;9.70;;;14.00;99.90;;;;;;5050813;28;20193;-51
2022/09/12 03:55:01;;;;;;;15.03;10.77;;;14.10;99.90;;;;;;5050517;28;20259;-51
2022/09/12 03:57:27;;;;;;;11.47;9.60;;;14.00;99.90;;;;;;5049901;28;20189;-50
2022/09/12 03:59:52;;;;;;;11.97;10.20;;;14.00;99.90;;;;;;5050814;28;20464;-54
2022/09/12 04:02:18;;;;;;;11.50;10.27;;;14.00;99.90;;;;;;5050345;28;20186;-47
2022/09/12 04:04:46;;;;;;;12.70;9.90;;;14.00;99.90;;;;;;5050453;28;20209;-51
2022/09/12 04:07:12;;;;;;;13.00;10.70;;;14.00;99.90;;;;;;5049564;28;20428;-49
2022/09/12 04:09:38;;;;;;;10.70;9.20;;;14.00;99.90;;;;;;5050264;28;20420;-50
2022/09/12 04:12:04;;;;;;;10.73;9.63;;;14.00;99.90;;;;;;5050429;28;20186;-53
2022/09/12 04:14:29;;;;;;;11.63;9.60;;;14.10;99.90;;;;;;5050423;28;20718;-51
2022/09/12 04:16:55;;;;;;;11.33;10.13;;;14.10;99.90;;;;;;5049329;28;20420;-51
2022/09/12 04:19:22;;;;;;;10.73;9.40;;;14.10;99.90;;;;;;5052675;28;20177;-50
2022/09/12 04:21:48;;;;;;;11.23;9.97;;;14.10;99.90;;;;;;5050573;28;20692;-52
2022/09/12 04:24:13;;;;;;;12.20;9.87;;;14.10;99.90;;;;;;5050010;28;20432;-47
2022/09/12 04:26:39;;;;;;;10.60;9.50;;;14.20;99.90;;;;;;5049804;28;20193;-52
2022/09/12 04:29:05;;;;;;;11.10;9.67;;;14.10;99.90;;;;;;5050132;28;20200;-47
2022/09/12 04:31:30;;;;;;;11.40;10.20;;;14.10;99.90;;;;;;5050133;28;20216;-52
2022/09/12 04:33:58;;;;;;;10.73;9.00;;;14.10;99.90;;;;;;5049931;28;20198;-51
2022/09/12 04:36:25;;;;;;;12.10;10.20;;;14.00;99.90;;;;;;5049541;28;20186;-48
2022/09/12 04:38:51;;;;;;;12.63;10.13;;;14.00;99.90;;;;;;5046327;28;21011;-52
2022/09/12 04:41:16;;;;;;;11.33;10.13;;;14.00;99.90;;;;;;5048859;28;20606;-49
2022/09/12 04:43:45;;;;;;;12.33;9.47;;;13.90;99.90;;;;;;5049909;28;20186;-53
2022/09/12 04:46:12;;;;;;;10.20;9.10;;;13.90;99.90;;;;;;5043676;28;20549;-47
2022/09/12 04:48:38;;;;;;;11.10;9.80;;;13.90;99.90;;;;;;5039567;28;20427;-51
2022/09/12 04:51:13;;;;;;;10.57;9.47;;;13.90;99.90;;;;;;5049771;28;20412;-49
2022/09/12 04:53:39;;;;;;;10.57;9.40;;;13.90;99.90;;;;;;5049636;28;20508;-52
2022/09/12 04:56:07;;;;;;;8.93;7.87;;;13.80;99.90;;;;;;5057775;28;20500;-50
2022/09/12 04:58:34;;;;;;;11.10;9.93;;;13.80;99.90;;;;;;5067144;28;20442;-51
2022/09/12 05:01:05;;;;;;;14.17;9.47;;;13.80;99.90;;;;;;5060290;28;20468;-52
2022/09/12 05:03:31;;;;;;;9.70;8.70;;;13.70;99.90;;;;;;5049039;28;20420;-51
2022/09/12 05:05:56;;;;;;;10.37;9.27;;;13.70;99.90;;;;;;5049519;28;20451;-47
2022/09/12 05:08:22;;;;;;;11.10;9.33;;;13.70;99.90;;;;;;5046641;28;20955;-52
2022/09/12 05:10:48;;;;;;;10.07;9.07;;;13.80;99.90;;;;;;5053909;28;20677;-52
2022/09/12 05:13:13;;;;;;;10.63;9.20;;;13.80;99.90;;;;;;5049673;28;20193;-52
2022/09/12 05:15:39;;;;;;;11.60;9.87;;;13.80;99.90;;;;;;5049594;28;20617;-51
2022/09/12 05:18:05;;;;;;;11.10;9.23;;;13.80;99.90;;;;;;5048999;28;20198;-51
2022/09/12 05:20:32;;;;;;;9.67;8.60;;;13.80;99.90;;;;;;5053766;28;20308;-51
2022/09/12 05:22:58;;;;;;;11.10;8.40;;;13.80;99.90;;;;;;5049491;28;20208;-52
2022/09/12 05:25:24;;;;;;;10.30;8.67;;;13.80;99.90;;;;;;5049397;28;20428;-53
2022/09/12 05:27:52;;;;;;;11.67;8.97;;;13.80;99.90;;;;;;5046575;28;20190;-48
2022/09/12 05:30:18;;;;;;;9.77;8.33;;;13.90;99.90;;;;;;5052942;28;20813;-52
2022/09/12 05:32:43;;;;;;;10.83;8.87;;;13.90;99.90;;;;;;5053273;28;20428;-52
2022/09/12 05:35:10;;;;;;;9.20;7.90;;;14.00;99.90;;;;;;5052118;28;20197;-54
2022/09/12 05:37:36;;;;;;;11.50;8.90;;;14.00;99.90;;;;;;5051446;28;20194;-52
2022/09/12 05:40:06;;;;;;;11.33;9.37;;;14.00;99.90;;;;;;5053040;28;20530;-51
2022/09/12 05:42:32;;;;;;;10.30;8.53;;;14.10;99.90;;;;;;5052427;28;20683;-51
2022/09/12 05:44:57;;;;;;;10.27;8.97;;;14.10;99.90;;;;;;5054230;28;20420;-52
2022/09/12 05:47:23;;;;;;;11.40;9.07;;;14.10;99.90;;;;;;5047775;28;20277;-52
2022/09/12 05:49:51;;;;;;;10.13;8.90;;;14.10;99.90;;;;;;5051193;28;20190;-54
2022/09/12 05:52:17;;;;;;;11.70;9.27;;;14.20;99.90;;;;;;5052748;28;20284;-50
2022/09/12 05:54:42;;;;;;;9.70;8.20;;;14.30;99.90;;;;;;5053074;28;20592;-52
2022/09/12 05:57:08;;;;;;;10.30;9.20;;;14.40;99.90;;;;;;5044939;28;20220;-54
2022/09/12 05:59:34;;;;;;;10.07;8.77;;;14.50;99.90;;;;;;5052746;28;20194;-50
2022/09/12 06:01:59;;;;;;;11.90;8.87;;;14.60;99.90;;;;;;5050330;28;20204;-52
2022/09/12 06:04:26;;;;;;;10.50;8.20;;;14.70;99.90;;;;;;5052473;28;20201;-50
2022/09/12 06:06:52;;;;;;;10.23;8.57;;;14.80;99.90;;;;;;5050263;28;20666;-48
2022/09/12 06:09:18;;;;;;;9.63;7.90;;;14.90;99.90;;;;;;5052621;28;20412;-53
2022/09/12 06:11:44;;;;;;;10.40;8.67;;;15.00;99.90;;;;;;5051705;28;20200;-47
2022/09/12 06:14:12;;;;;;;9.87;8.40;;;15.10;99.90;;;;;;5051653;28;20288;-51
2022/09/12 06:16:39;;;;;;;9.60;8.60;;;15.30;99.90;;;;;;5052136;28;20809;-50
2022/09/12 06:19:16;;;;;;;9.50;8.50;;;15.40;99.90;;;;;;5051994;28;20448;-49
2022/09/12 06:21:42;;;;;;;8.90;7.70;;;15.70;99.90;;;;;;5048048;28;20463;-51
2022/09/12 06:24:08;;;;;;;15.43;9.23;;;15.80;99.90;;;;;;5054186;28;20466;-50
2022/09/12 06:26:34;;;;;;;9.53;8.27;;;15.90;99.90;;;;;;5050887;28;21987;-51
2022/09/12 06:29:00;;;;;;;9.30;8.20;;;16.10;99.90;;;;;;5049511;28;20862;-52
2022/09/12 06:31:33;;;;;;;8.67;7.77;;;16.20;99.90;;;;;;5049600;28;20520;-50
2022/09/12 06:34:01;;;;;;;10.23;8.03;;;16.30;99.90;;;;;;5050569;28;20452;-50
2022/09/12 06:36:33;;;;;;;9.07;8.17;;;16.50;99.90;;;;;;5050883;28;20428;-50
2022/09/12 06:39:09;;;;;;;10.00;8.47;;;16.60;99.90;;;;;;5050370;28;20515;-50
2022/09/12 06:41:35;;;;;;;11.57;8.40;;;16.70;99.90;;;;;;5050612;28;20839;-48
2022/09/12 06:44:01;;;;;;;9.53;7.80;;;16.70;99.90;;;;;;5051618;28;20524;-51
2022/09/12 06:46:28;;;;;;;9.13;8.10;;;16.80;99.90;;;;;;5051124;28;20577;-48
2022/09/12 06:48:58;;;;;;;8.03;7.23;;;16.80;99.90;;;;;;5051228;28;20467;-49
2022/09/12 06:51:25;;;;;;;10.40;8.00;;;16.70;99.90;;;;;;5051911;28;20455;-52
2022/09/12 06:53:51;;;;;;;11.10;9.30;;;16.70;99.90;;;;;;5051670;28;20467;-50
2022/09/12 06:56:21;;;;;;;8.77;7.87;;;16.70;99.90;;;;;;5051671;28;20436;-49
2022/09/12 06:58:49;;;;;;;12.30;8.13;;;16.70;99.90;;;;;;5051080;28;20432;-52
2022/09/12 07:01:20;;;;;;;8.80;7.87;;;16.70;99.90;;;;;;5051664;28;20475;-52
2022/09/12 07:03:50;;;;;;;9.47;8.43;;;16.70;99.90;;;;;;5051516;28;20482;-51
2022/09/12 07:06:18;;;;;;;10.10;8.23;;;16.60;99.90;;;;;;5051472;28;20470;-53
2022/09/12 07:08:45;;;;;;;12.00;8.53;;;16.70;99.90;;;;;;5050543;28;20469;-51
2022/09/12 07:11:15;;;;;;;10.40;8.13;;;16.70;99.90;;;;;;5051430;28;20432;-48
2022/09/12 07:13:42;;;;;;;10.07;8.30;;;16.80;99.90;;;;;;5050669;28;20494;-48
2022/09/12 07:16:09;;;;;;;9.60;8.60;;;16.90;99.90;;;;;;5039644;28;20445;-47
2022/09/12 07:18:39;;;;;;;10.53;7.80;;;17.00;99.90;;;;;;5047661;28;20436;-51
2022/09/12 07:21:10;;;;;;;9.50;7.50;;;17.10;99.90;;;;;;5047767;28;20464;-50
2022/09/12 07:23:37;;;;;;;10.67;8.90;;;17.10;99.90;;;;;;5049048;28;20413;-47
2022/09/12 07:26:03;;;;;;;9.47;7.87;;;17.20;99.90;;;;;;5051554;28;20835;-53
2022/09/12 07:28:31;;;;;;;10.17;8.33;;;17.10;99.90;;;;;;5049507;28;20846;-53
2022/09/12 07:30:57;;;;;;;9.23;7.67;;;17.20;99.90;;;;;;5052277;28;20431;-51
2022/09/12 07:33:26;;;;;;;10.07;7.73;;;17.20;99.90;;;;;;5052379;28;20535;-53
2022/09/12 07:35:53;;;;;;;11.83;9.13;;;17.30;99.90;;;;;;5049775;28;20432;-48
2022/09/12 07:38:19;;;;;;;10.40;9.30;;;17.30;99.90;;;;;;5049496;28;20481;-53
2022/09/12 07:40:45;;;;;;;10.57;9.20;;;17.30;99.90;;;;;;5049993;28;20464;-51
2022/09/12 07:43:11;;;;;;;16.00;8.80;;;17.30;99.90;;;;;;5049961;28;20421;-49
2022/09/12 07:45:40;;;;;;;8.53;7.50;;;17.40;99.90;;;;;;5050351;28;20420;-52
2022/09/12 07:48:06;;;;;;;9.53;8.53;;;17.40;99.90;;;;;;5048881;28;20427;-48
2022/09/12 07:50:32;;;;;;;12.87;8.67;;;17.40;99.90;;;;;;5050030;28;21197;-54
2022/09/12 07:52:58;;;;;;;9.57;8.57;;;17.40;99.90;;;;;;5050091;28;20435;-50
2022/09/12 07:55:24;;;;;;;9.03;8.07;;;17.40;99.90;;;;;;5050692;28;20196;-49
2022/09/12 07:57:51;;;;;;;9.00;8.10;;;17.50;99.90;;;;;;5049895;28;20195;-47
2022/09/12 08:00:17;;;;;;;9.73;8.10;;;17.50;99.90;;;;;;5050592;28;20471;-49
2022/09/12 08:02:43;;;;;;;14.03;9.27;;;17.50;99.90;;;;;;5050526;28;20444;-49
2022/09/12 08:05:08;;;;;;;10.80;8.70;;;17.50;99.90;;;;;;5050560;28;20486;-52
2022/09/12 08:07:34;;;;;;;9.80;8.67;;;17.60;99.90;;;;;;5049762;28;20224;-50
2022/09/12 08:10:00;;;;;;;9.50;8.50;;;17.60;99.90;;;;;;5050440;28;20202;-50
2022/09/12 08:12:31;;;;;;;9.30;7.77;;;17.60;99.90;;;;;;5050356;28;20560;-51
2022/09/12 08:14:57;;;;;;;11.17;8.97;;;17.60;99.90;;;;;;5050472;28;20288;-49
2022/09/12 08:17:22;;;;;;;10.47;8.83;;;17.70;99.90;;;;;;5049396;28;20861;-54
2022/09/12 08:19:48;;;;;;;10.57;8.20;;;17.70;99.90;;;;;;5053829;28;20435;-52
2022/09/12 08:22:14;;;;;;;13.40;8.90;;;17.90;99.90;;;;;;5050217;28;20724;-51
2022/09/12 08:24:40;;;;;;;9.40;8.50;;;17.90;99.90;;;;;;5050181;28;20702;-48
2022/09/12 08:27:06;;;;;;;9.50;8.37;;;18.00;99.90;;;;;;5049677;28;20190;-50
2022/09/12 08:29:32;;;;;;;13.37;10.67;;;18.00;99.90;;;;;;5049967;28;20185;-53
2022/09/12 08:31:58;;;;;;;10.27;8.70;;;18.10;99.90;;;;;;5049917;28;20454;-52
2022/09/12 08:34:24;;;;;;;9.70;8.73;;;18.20;99.90;;;;;;5049747;28;20213;-48
2022/09/12 08:36:53;;;;;;;10.60;9.50;;;18.20;99.90;;;;;;5049380;28;20310;-52
2022/09/12 08:39:19;;;;;;;10.17;9.10;;;18.30;99.90;;;;;;5049845;28;21115;-47
2022/09/12 08:41:47;;;;;;;12.17;9.37;;;18.30;99.90;;;;;;5049952;28;20460;-52
2022/09/12 08:44:50;;;;;;;11.50;9.00;;;18.40;99.90;;;;;;5049657;28;20464;-53
2022/09/12 08:47:25;;;;;;;10.70;8.80;;;18.40;99.90;;;;;;5047861;28;20502;-50
2022/09/12 08:50:09;;;;;;;10.57;8.63;;;18.50;99.90;;;;;;5049958;28;20438;-54
2022/09/12 08:52:57;;;;;;;11.30;8.63;;;18.50;99.90;;;;;;5049666;28;20416;-49
2022/09/12 08:55:48;;;;;;;9.13;8.13;;;18.60;99.90;;;;;;5048728;28;20966;-54
2022/09/12 08:58:19;;;;;;;8.97;8.07;;;18.70;99.90;;;;;;5048460;28;20964;-52
2022/09/12 09:00:45;;;;;;;10.23;9.13;;;18.70;99.90;;;;;;5049607;28;20502;-49
2022/09/12 09:03:33;;;;;;;10.63;8.30;;;18.80;99.90;;;;;;5050056;28;20475;-53
2022/09/12 09:06:14;;;;;;;10.77;8.93;;;18.80;99.90;;;;;;5053347;28;20240;-48
2022/09/12 09:08:40;;;;;;;10.10;7.80;;;18.90;99.90;;;;;;5052879;28;20442;-48
2022/09/12 09:11:27;;;;;;;11.53;7.40;;;18.90;99.90;;;;;;5053698;28;20802;-50
2022/09/12 09:17:13;;;;;;;9.40;7.33;;;19.00;99.90;;;;;;5058829;28;20431;-51
2022/09/12 09:19:50;;;;;;;8.53;7.67;;;19.10;99.90;;;;;;5057426;28;20522;-48
2022/09/12 09:22:30;;;;;;;8.47;7.60;;;19.20;99.90;;;;;;5053516;28;20435;-49
2022/09/12 09:25:01;;;;;;;8.03;7.33;;;19.20;99.90;;;;;;5053463;28;20554;-48
2022/09/12 09:27:29;;;;;;;8.60;7.60;;;19.30;99.90;;;;;;5052920;28;20439;-49
2022/09/12 09:29:56;;;;;;;7.90;7.10;;;19.50;99.90;;;;;;5053364;28;20431;-48
2022/09/12 09:32:36;;;;;;;8.20;6.87;;;19.60;99.90;;;;;;5053231;28;20462;-51
2022/09/12 09:35:14;;;;;;;7.73;6.93;;;19.70;99.90;;;;;;5053415;28;21107;-47
2022/09/12 09:37:43;;;;;;;9.20;7.47;;;19.80;99.90;;;;;;5052581;28;20469;-52
2022/09/12 09:40:39;;;;;;;6.20;5.60;;;19.80;99.90;;;;;;5053281;28;20474;-48
2022/09/12 09:43:31;;;;;;;7.80;6.63;;;19.90;99.90;;;;;;5053182;28;20449;-50
2022/09/12 09:46:00;;;;;;;5.80;5.30;;;20.00;99.90;;;;;;5053467;28;20478;-49
2022/09/12 09:48:40;;;;;;;6.83;6.13;;;20.00;99.90;;;;;;5051035;28;20460;-49
2022/09/12 09:51:08;;;;;;;6.17;5.57;;;20.00;99.90;;;;;;5052843;28;20486;-53
2022/09/12 09:53:36;;;;;;;6.83;6.17;;;20.00;99.90;;;;;;5052918;28;20467;-50
2022/09/12 09:56:09;;;;;;;7.50;5.80;;;20.00;99.90;;;;;;5053106;28;20491;-52
2022/09/12 09:58:36;;;;;;;6.07;5.50;;;20.30;99.90;;;;;;5052356;28;20434;-49
2022/09/12 10:01:04;;;;;;;5.80;5.30;;;20.50;99.90;;;;;;5052961;28;20806;-50
2022/09/12 10:03:37;;;;;;;6.60;6.00;;;20.70;99.90;;;;;;5052781;28;20518;-51
2022/09/12 10:06:19;;;;;;;6.03;5.43;;;20.90;99.90;;;;;;5052729;28;20448;-51
2022/09/12 10:08:46;;;;;;;5.57;4.80;;;21.10;99.90;;;;;;5051876;28;20424;-51
2022/09/12 10:11:15;;;;;;;5.13;4.63;;;21.20;99.90;;;;;;5052773;28;20856;-48
2022/09/12 10:13:53;;;;;;;4.97;4.57;;;21.30;99.90;;;;;;5050981;28;21076;-49
2022/09/12 10:16:47;;;;;;;5.23;4.73;;;21.20;99.90;;;;;;5052424;28;20998;-49
2022/09/12 10:19:23;;;;;;;5.50;4.77;;;21.30;99.90;;;;;;5054852;28;20997;-49
2022/09/12 10:21:55;;;;;;;4.13;3.83;;;21.40;99.90;;;;;;5052733;28;20467;-47
2022/09/12 10:24:29;;;;;;;4.50;4.10;;;21.50;99.90;;;;;;5052305;28;20428;-47
2022/09/12 10:27:04;;;;;;;4.03;3.73;;;21.60;99.90;;;;;;5051964;28;20921;-48
2022/09/12 10:29:33;;;;;;;4.13;3.80;;;21.70;99.90;;;;;;5052199;28;20436;-52
2022/09/12 10:32:06;;;;;;;3.47;3.17;;;21.80;99.90;;;;;;5052390;28;20492;-49
2022/09/12 10:34:41;;;;;;;4.10;3.70;;;21.90;99.90;;;;;;5052163;28;20523;-49
2022/09/12 10:37:22;;;;;;;4.63;3.17;;;22.00;99.90;;;;;;5051368;28;20485;-48
2022/09/12 10:40:19;;;;;;;3.60;3.30;;;22.00;99.90;;;;;;5052035;28;20432;-52
2022/09/12 10:42:50;;;;;;;4.17;3.87;;;22.10;99.90;;;;;;5052082;28;20523;-52
2022/09/12 10:45:24;;;;;;;4.40;4.00;;;22.20;99.90;;;;;;5051866;28;20432;-49
2022/09/12 10:47:52;;;;;;;3.90;3.60;;;22.30;99.90;;;;;;5048491;28;20871;-51
2022/09/12 10:50:25;;;;;;;3.30;3.10;;;22.50;99.90;;;;;;5051755;28;20424;-51
2022/09/12 10:52:52;;;;;;;3.50;3.30;;;22.50;99.90;;;;;;5051923;28;20433;-47
2022/09/12 10:55:26;;;;;;;4.00;3.37;;;22.60;99.90;;;;;;5051822;28;20839;-50
2022/09/12 10:58:03;;;;;;;3.30;3.00;;;22.60;99.90;;;;;;5051013;28;20517;-49
2022/09/12 11:00:33;;;;;;;3.60;3.30;;;22.70;99.90;;;;;;5051770;28;20463;-48
2022/09/12 11:03:15;;;;;;;3.73;3.40;;;22.70;99.90;;;;;;5051775;28;20645;-49
2022/09/12 11:05:49;;;;;;;3.27;3.07;;;22.80;99.90;;;;;;5051481;28;20888;-49
2022/09/12 11:08:48;;;;;;;3.80;3.50;;;22.90;99.90;;;;;;5045458;28;20481;-48
2022/09/12 11:11:37;;;;;;;3.57;3.27;;;23.00;99.90;;;;;;5051673;28;20492;-50
2022/09/12 11:14:26;;;;;;;7.20;3.90;;;23.00;99.90;;;;;;5051649;28;20420;-52
2022/09/12 11:17:20;;;;;;;3.70;3.40;;;23.00;99.90;;;;;;5050670;28;20455;-49
2022/09/12 11:20:08;;;;;;;4.10;3.37;;;23.10;99.90;;;;;;5057533;28;20444;-48
2022/09/12 11:23:05;;;;;;;3.43;3.13;;;23.10;99.90;;;;;;5051444;28;20489;-51
2022/09/12 11:25:57;;;;;;;4.10;3.70;;;23.10;99.90;;;;;;5050996;28;20799;-50
2022/09/12 11:28:34;;;;;;;3.47;3.27;;;23.20;99.90;;;;;;5050808;28;20845;-49
2022/09/12 11:31:28;;;;;;;3.60;3.30;;;23.30;99.90;;;;;;5049795;28;20435;-52
2022/09/12 11:33:56;;;;;;;3.77;3.40;;;23.40;99.90;;;;;;5051054;28;20510;-48
2022/09/12 11:36:52;;;;;;;4.23;3.17;;;23.40;99.90;;;;;;5050906;28;20481;-48
2022/09/12 11:39:43;;;;;;;3.80;3.50;;;23.50;99.90;;;;;;5051082;28;20427;-47
2022/09/12 11:42:16;;;;;;;3.50;3.20;;;23.30;99.90;;;;;;5051144;28;20428;-48
2022/09/12 11:44:46;;;;;;;3.70;3.40;;;23.20;99.90;;;;;;5050954;28;20976;-49
2022/09/12 11:47:13;;;;;;;3.80;3.50;;;23.20;99.90;;;;;;5048759;28;20847;-52
2022/09/12 11:49:40;;;;;;;3.60;3.30;;;23.20;99.90;;;;;;5050846;28;20421;-48
2022/09/12 11:52:14;;;;;;;3.77;3.47;;;23.30;99.90;;;;;;5050453;28;20423;-47
2022/09/12 11:54:56;;;;;;;4.30;3.90;;;23.50;99.90;;;;;;5050951;28;20446;-48
2022/09/12 11:57:42;;;;;;;4.07;3.77;;;23.50;99.90;;;;;;5049962;28;20420;-49
2022/09/12 12:00:25;;;;;;;4.53;4.13;;;23.40;99.90;;;;;;5050692;28;20456;-48
2022/09/12 12:03:19;;;;;;;3.80;3.50;;;23.30;99.90;;;;;;5050365;28;20851;-52
2022/09/12 12:05:54;;;;;;;3.97;3.67;;;23.20;99.90;;;;;;5050491;28;20440;-52
2022/09/12 12:08:22;;;;;;;3.83;3.43;;;23.20;99.90;;;;;;5043471;28;20468;-51
2022/09/12 12:10:56;;;;;;;4.20;3.80;;;23.30;99.90;;;;;;5050254;28;20526;-51
2022/09/12 12:13:31;;;;;;;3.50;3.23;;;23.30;99.90;;;;;;5050227;28;20427;-51
2022/09/12 12:16:06;;;;;;;3.73;3.33;;;23.40;99.90;;;;;;5050460;28;20476;-48
2022/09/12 12:18:35;;;;;;;3.33;3.13;;;23.40;99.90;;;;;;5049547;28;20431;-50
2022/09/12 12:21:25;;;;;;;4.67;3.80;;;23.40;99.90;;;;;;5054979;28;20471;-47
2022/09/12 12:24:06;;;;;;;4.10;3.60;;;23.40;99.90;;;;;;5050135;28;20499;-50
2022/09/12 12:26:58;;;;;;;4.13;3.73;;;23.40;99.80;;;;;;5049932;28;20454;-48
2022/09/12 12:29:31;;;;;;;4.30;3.80;;;23.50;99.90;;;;;;5051359;28;20412;-53
2022/09/12 12:32:02;;;;;;;4.10;3.70;;;23.60;99.90;;;;;;5050168;28;20416;-52
2022/09/12 12:34:31;;;;;;;3.97;3.67;;;23.60;99.80;;;;;;5049806;28;21091;-53
2022/09/12 12:36:58;;;;;;;4.20;3.80;;;23.50;99.30;;;;;;5049186;28;20427;-49
2022/09/12 12:39:30;;;;;;;4.33;3.93;;;23.30;99.60;;;;;;5049717;28;20424;-54
2022/09/12 12:41:57;;;;;;;3.80;3.50;;;23.10;99.60;;;;;;5049898;28;20513;-51
2022/09/12 12:44:58;;;;;;;3.67;3.37;;;23.00;99.90;;;;;;5049692;28;20428;-50
2022/09/12 12:47:26;;;;;;;3.40;3.10;;;23.00;99.90;;;;;;5064420;28;20466;-48
2022/09/12 12:49:59;;;;;;;5.10;3.57;;;23.10;99.90;;;;;;5044948;28;20857;-48
2022/09/12 12:52:30;;;;;;;5.33;4.03;;;23.30;99.90;;;;;;5049480;28;20423;-52
2022/09/12 12:54:58;;;;;;;4.03;3.73;;;23.50;99.90;;;;;;5049721;28;20462;-53
2022/09/12 12:57:29;;;;;;;5.70;3.60;;;23.60;99.60;;;;;;5049113;28;20440;-51
2022/09/12 13:00:24;;;;;;;3.90;3.60;;;23.70;99.90;;;;;;5049493;28;20420;-51
2022/09/12 13:03:01;;;;;;;3.60;3.30;;;23.80;98.60;;;;;;5049658;28;20440;-51
2022/09/12 13:05:29;;;;;;;3.77;3.40;;;23.80;98.90;;;;;;5049519;28;20443;-48
2022/09/12 13:08:31;;;;;;;3.60;3.30;;;23.80;98.10;;;;;;5048959;28;20428;-49
2022/09/12 13:11:15;;;;;;;3.20;2.90;;;23.80;97.90;;;;;;5058630;28;20794;-47